Time;durP1;ratioP1;P1;durP2;ratioP2;P2;SDS_P1;SDS_P2;PMS_P1;PMS_P2;Temp;Humidity;BMP_temperature;BMP_pressure;BME280_temperature;BME280_humidity;BME280_pressure;Samples;Min_cycle;Max_cycle;Signal;HPM_P1;HPM_P2
2023/01/11 00:00:15;;;;;;;9.77;3.83;;;6.60;99.90;;;;;;4971595;28;20462;-47
2023/01/11 00:02:44;;;;;;;13.80;4.73;;;6.80;99.90;;;;;;4994925;22;20474;-51
2023/01/11 00:05:11;;;;;;;11.97;3.77;;;6.60;99.90;;;;;;4971346;28;20411;-52
2023/01/11 00:07:38;;;;;;;10.87;3.67;;;6.60;99.90;;;;;;4971739;28;20469;-51
2023/01/11 00:10:07;;;;;;;7.97;3.70;;;6.60;99.90;;;;;;4971037;28;20485;-52
2023/01/11 00:12:33;;;;;;;10.03;3.97;;;6.50;99.90;;;;;;4971388;28;20528;-51
2023/01/11 00:15:01;;;;;;;9.80;4.20;;;6.70;99.90;;;;;;4971470;28;20435;-51
2023/01/11 00:17:28;;;;;;;7.53;3.90;;;6.50;99.90;;;;;;5037839;28;20435;-51
2023/01/11 00:19:55;;;;;;;11.03;4.10;;;6.80;99.90;;;;;;4971598;28;20778;-51
2023/01/11 00:22:22;;;;;;;8.23;3.60;;;6.30;99.90;;;;;;4971392;28;20502;-51
2023/01/11 00:24:48;;;;;;;8.67;3.40;;;7.30;99.90;;;;;;4971576;28;20414;-52
2023/01/11 00:27:15;;;;;;;12.80;3.87;;;6.00;99.90;;;;;;4971072;28;20454;-52
2023/01/11 00:29:41;;;;;;;13.90;4.93;;;6.10;99.90;;;;;;4971330;28;20430;-52
2023/01/11 00:32:09;;;;;;;10.00;3.50;;;6.70;99.90;;;;;;4971181;28;20511;-52
2023/01/11 00:34:36;;;;;;;8.30;3.63;;;6.80;99.90;;;;;;4971366;28;20925;-52
2023/01/11 00:37:04;;;;;;;9.13;3.90;;;6.60;99.90;;;;;;4971050;28;20408;-52
2023/01/11 00:39:30;;;;;;;11.17;3.57;;;6.90;99.90;;;;;;4970567;28;20451;-52
2023/01/11 00:50:12;;;;;;;8.37;2.77;;;6.60;99.90;;;;;;4970598;28;20804;-52
2023/01/11 00:52:38;;;;;;;7.70;3.03;;;6.80;99.90;;;;;;4970360;28;20545;-52
2023/01/11 00:55:06;;;;;;;10.80;3.20;;;6.60;99.90;;;;;;4970697;28;20406;-52
2023/01/11 00:57:33;;;;;;;7.83;3.10;;;6.50;99.90;;;;;;4970729;28;20435;-51
2023/01/11 00:59:59;;;;;;;10.00;3.17;;;6.60;99.90;;;;;;4970360;28;20422;-52
2023/01/11 01:02:27;;;;;;;8.57;3.40;;;6.50;99.90;;;;;;4970464;28;20887;-51
2023/01/11 01:04:55;;;;;;;11.40;3.67;;;6.60;99.90;;;;;;4970798;28;20449;-51
2023/01/11 01:07:21;;;;;;;9.67;2.97;;;6.90;99.90;;;;;;4970506;28;20475;-52
2023/01/11 01:09:48;;;;;;;8.07;3.37;;;6.60;99.90;;;;;;4970050;28;20444;-52
2023/01/11 01:14:24;;;;;;;8.10;3.87;;;6.40;99.90;;;;;;4970430;28;20433;-52
2023/01/11 01:15:01;;;;;;;9.30;3.23;;;6.80;99.90;;;;;;4970541;28;20547;-51
2023/01/11 01:17:29;;;;;;;10.90;3.60;;;6.70;99.90;;;;;;4970579;28;20690;-52
2023/01/11 01:19:55;;;;;;;9.70;3.67;;;6.80;99.90;;;;;;4970002;28;20421;-52
2023/01/11 01:22:22;;;;;;;6.30;3.00;;;6.10;99.90;;;;;;4970278;28;20458;-52
2023/01/11 01:24:48;;;;;;;5.30;2.40;;;6.50;99.90;;;;;;4970483;28;20786;-52
2023/01/11 01:27:16;;;;;;;12.37;2.97;;;6.30;99.90;;;;;;4970300;28;20469;-52
2023/01/11 01:29:43;;;;;;;6.80;2.93;;;6.60;99.90;;;;;;4969848;28;20435;-52
2023/01/11 01:32:10;;;;;;;9.10;3.60;;;6.40;99.90;;;;;;4970591;28;20439;-52
2023/01/11 01:34:38;;;;;;;8.53;2.43;;;6.50;99.90;;;;;;4970212;28;20899;-52
2023/01/11 01:37:05;;;;;;;11.83;3.97;;;6.00;99.90;;;;;;4970112;28;20418;-52
2023/01/11 01:39:31;;;;;;;13.40;3.10;;;6.50;99.90;;;;;;4969745;28;20412;-52
2023/01/11 01:41:58;;;;;;;8.70;2.93;;;6.50;99.90;;;;;;4970022;28;20430;-52
2023/01/11 01:44:54;;;;;;;6.73;2.97;;;6.50;99.90;;;;;;4970135;28;20436;-52
2023/01/11 01:47:24;;;;;;;9.00;3.73;;;6.60;99.90;;;;;;4970019;28;20532;-51
2023/01/11 01:49:52;;;;;;;9.00;2.60;;;5.90;99.90;;;;;;4969902;28;20428;-52
2023/01/11 01:52:19;;;;;;;8.17;2.67;;;5.90;99.90;;;;;;4969870;28;20438;-52
2023/01/11 01:54:48;;;;;;;7.43;3.30;;;6.40;99.90;;;;;;4970048;28;20407;-52
2023/01/11 01:57:18;;;;;;;5.13;2.63;;;6.50;99.90;;;;;;4969966;28;20801;-52
2023/01/11 01:59:50;;;;;;;8.83;3.00;;;6.40;99.90;;;;;;4969569;28;20405;-52
2023/01/11 02:02:17;;;;;;;5.80;2.97;;;6.00;99.90;;;;;;4969994;28;20862;-52
2023/01/11 02:04:45;;;;;;;13.37;3.43;;;6.60;99.90;;;;;;4973045;28;20957;-51
2023/01/11 02:07:16;;;;;;;11.00;3.20;;;6.70;99.90;;;;;;4973017;28;20471;-52
2023/01/11 02:09:46;;;;;;;7.70;2.53;;;6.00;99.90;;;;;;4972787;28;20423;-52
2023/01/11 02:12:14;;;;;;;5.13;2.80;;;6.90;99.90;;;;;;4973030;28;20963;-52
2023/01/11 02:14:42;;;;;;;10.13;3.03;;;6.70;99.90;;;;;;4973192;28;20436;-52
2023/01/11 02:17:08;;;;;;;7.70;3.20;;;6.60;99.90;;;;;;4973278;28;20810;-52
2023/01/11 02:19:49;;;;;;;6.30;2.47;;;6.60;99.90;;;;;;4972720;28;20528;-52
2023/01/11 02:23:06;;;;;;;8.20;2.90;;;6.70;99.90;;;;;;4972958;28;20468;-52
2023/01/11 02:26:22;;;;;;;8.40;2.93;;;6.70;99.90;;;;;;4972947;28;20435;-52
2023/01/11 02:28:55;;;;;;;6.57;2.83;;;6.90;99.90;;;;;;4972396;28;20432;-52
2023/01/11 02:31:31;;;;;;;6.37;2.67;;;6.90;99.90;;;;;;4972687;28;21002;-52
2023/01/11 02:34:11;;;;;;;15.17;3.27;;;6.60;99.90;;;;;;4973060;28;20434;-52
2023/01/11 02:36:45;;;;;;;7.43;2.57;;;6.60;99.90;;;;;;4972733;28;20414;-52
2023/01/11 02:39:21;;;;;;;7.47;2.57;;;6.50;99.90;;;;;;4972462;28;20480;-52
2023/01/11 02:45:02;;;;;;;7.43;2.27;;;7.00;99.90;;;;;;4972696;28;20440;-51
2023/01/11 02:47:37;;;;;;;5.37;2.40;;;6.80;99.90;;;;;;4972614;28;20499;-52
2023/01/11 02:50:10;;;;;;;10.67;3.23;;;6.80;99.90;;;;;;4972502;28;20412;-52
2023/01/11 02:52:45;;;;;;;6.60;2.87;;;6.70;99.90;;;;;;4972453;28;20831;-52
2023/01/11 02:55:15;;;;;;;7.93;3.10;;;6.90;99.90;;;;;;4972581;28;20437;-52
2023/01/11 02:57:43;;;;;;;5.27;2.00;;;6.90;99.90;;;;;;4972534;28;20440;-52
2023/01/11 03:00:14;;;;;;;6.60;2.47;;;6.80;99.90;;;;;;4972044;28;20928;-52
2023/01/11 03:02:40;;;;;;;9.50;2.40;;;6.70;99.90;;;;;;4972262;28;20475;-52
2023/01/11 03:05:12;;;;;;;4.33;2.13;;;6.80;99.90;;;;;;4972344;28;20444;-52
2023/01/11 03:07:51;;;;;;;7.13;2.50;;;6.80;99.90;;;;;;4972327;28;20454;-52
2023/01/11 03:10:28;;;;;;;11.73;3.07;;;6.80;99.90;;;;;;4972055;28;20437;-52
2023/01/11 03:13:01;;;;;;;6.13;2.20;;;6.80;99.90;;;;;;4972477;28;20438;-52
2023/01/11 03:15:59;;;;;;;6.00;2.30;;;6.80;99.90;;;;;;4972429;28;20427;-52
2023/01/11 03:18:39;;;;;;;7.77;2.03;;;6.80;99.90;;;;;;4972982;28;20426;-52
2023/01/11 03:21:20;;;;;;;8.63;2.70;;;6.90;99.90;;;;;;4972069;28;20529;-53
2023/01/11 03:23:58;;;;;;;10.13;2.70;;;6.60;99.90;;;;;;4972011;28;20935;-53
2023/01/11 03:26:33;;;;;;;4.13;1.80;;;7.20;99.90;;;;;;4972125;28;20436;-51
2023/01/11 03:29:08;;;;;;;5.80;2.20;;;7.10;99.90;;;;;;4971719;28;20458;-51
2023/01/11 03:31:40;;;;;;;6.53;2.43;;;6.80;99.90;;;;;;4972101;28;20447;-51
2023/01/11 03:34:15;;;;;;;5.77;2.70;;;6.50;99.90;;;;;;4972063;28;20448;-51
2023/01/11 03:36:45;;;;;;;5.10;2.30;;;7.40;99.90;;;;;;4972014;28;20407;-51
2023/01/11 03:39:18;;;;;;;8.87;2.67;;;7.00;99.90;;;;;;4971642;28;20415;-50
2023/01/11 03:41:47;;;;;;;11.93;2.47;;;7.00;99.90;;;;;;4971936;28;20440;-50
2023/01/11 03:44:15;;;;;;;5.47;2.37;;;7.10;99.90;;;;;;4972083;28;20419;-50
2023/01/11 03:46:48;;;;;;;10.93;2.53;;;7.20;99.90;;;;;;4971944;28;20451;-51
2023/01/11 03:49:18;;;;;;;4.67;1.87;;;7.20;99.90;;;;;;4971810;28;20411;-51
2023/01/11 03:51:47;;;;;;;8.47;2.17;;;7.20;99.90;;;;;;4971693;28;20424;-51
2023/01/11 03:54:18;;;;;;;6.77;2.30;;;7.20;99.90;;;;;;4971693;28;20792;-51
2023/01/11 03:56:52;;;;;;;4.47;2.47;;;7.20;99.90;;;;;;4971835;28;20919;-52
2023/01/11 03:59:19;;;;;;;6.10;1.97;;;7.10;99.90;;;;;;4971336;28;20408;-51
2023/01/11 04:01:47;;;;;;;4.63;2.10;;;7.10;99.90;;;;;;4971628;28;20444;-52
2023/01/11 04:04:13;;;;;;;5.43;1.97;;;7.20;99.90;;;;;;4971648;28;20440;-51
2023/01/11 04:06:40;;;;;;;4.47;1.87;;;7.20;99.90;;;;;;4971944;28;20418;-51
2023/01/11 04:09:06;;;;;;;5.80;2.00;;;7.30;99.90;;;;;;4971237;28;20482;-51
2023/01/11 04:11:33;;;;;;;4.53;2.20;;;7.20;99.90;;;;;;4971385;28;20476;-52
2023/01/11 04:14:00;;;;;;;6.20;2.27;;;7.10;99.90;;;;;;4971532;28;20470;-52
2023/01/11 04:16:27;;;;;;;4.17;1.90;;;7.50;99.90;;;;;;4971461;28;20475;-52
2023/01/11 04:18:55;;;;;;;5.73;2.17;;;7.40;99.90;;;;;;4970691;28;20422;-51
2023/01/11 04:21:22;;;;;;;7.57;3.17;;;7.10;99.90;;;;;;4971166;28;20849;-51
2023/01/11 04:23:48;;;;;;;9.17;2.40;;;7.20;99.90;;;;;;4971150;28;20464;-52
2023/01/11 04:26:16;;;;;;;9.70;2.33;;;7.20;99.90;;;;;;4970471;28;20442;-51
2023/01/11 04:28:43;;;;;;;5.67;1.93;;;7.50;99.90;;;;;;4970553;28;20551;-51
2023/01/11 04:31:10;;;;;;;4.70;1.80;;;6.70;99.90;;;;;;4971440;28;20442;-51
2023/01/11 04:33:36;;;;;;;4.50;1.83;;;7.30;99.90;;;;;;4971024;28;20478;-51
2023/01/11 04:36:06;;;;;;;6.63;1.93;;;7.40;99.90;;;;;;4970853;28;20409;-52
2023/01/11 04:38:34;;;;;;;3.73;1.73;;;7.40;99.90;;;;;;4970796;28;20414;-51
2023/01/11 04:43:41;;;;;;;5.57;2.50;;;7.20;99.90;;;;;;4973689;28;20927;-52
2023/01/11 04:46:09;;;;;;;5.67;1.93;;;7.50;99.90;;;;;;4971078;28;20414;-51
2023/01/11 04:48:38;;;;;;;3.60;2.30;;;7.50;99.90;;;;;;4970505;28;20460;-51
2023/01/11 04:51:06;;;;;;;7.03;2.17;;;7.50;99.90;;;;;;4970928;28;20414;-51
2023/01/11 04:53:32;;;;;;;3.90;2.03;;;7.50;99.90;;;;;;4970821;28;20729;-51
2023/01/11 04:56:00;;;;;;;4.70;2.70;;;7.50;99.90;;;;;;4970813;28;20982;-52
2023/01/11 04:58:26;;;;;;;6.60;2.57;;;7.50;99.90;;;;;;4970904;28;20885;-52
2023/01/11 05:00:53;;;;;;;8.47;2.27;;;7.50;99.90;;;;;;4970507;28;20437;-51
2023/01/11 05:03:20;;;;;;;6.90;2.20;;;7.80;99.90;;;;;;4970189;28;20981;-52
2023/01/11 05:05:54;;;;;;;4.43;3.70;;;7.20;99.90;;;;;;4970617;28;20440;-51
2023/01/11 05:08:23;;;;;;;6.00;2.60;;;7.70;99.90;;;;;;4970156;28;20474;-51
2023/01/11 05:10:52;;;;;;;8.60;2.50;;;7.70;99.90;;;;;;5036924;28;20421;-52
2023/01/11 05:13:19;;;;;;;9.40;2.33;;;7.60;99.90;;;;;;4970368;28;20446;-51
2023/01/11 05:15:45;;;;;;;7.30;2.70;;;7.70;99.90;;;;;;4970402;28;20416;-51
2023/01/11 05:18:12;;;;;;;5.03;1.90;;;7.70;99.90;;;;;;4970326;28;20463;-51
2023/01/11 05:20:38;;;;;;;4.40;1.97;;;6.90;99.90;;;;;;4970223;28;20432;-51
2023/01/11 05:23:05;;;;;;;10.10;2.50;;;7.80;99.90;;;;;;4970241;28;20464;-51
2023/01/11 05:25:33;;;;;;;3.80;2.00;;;7.70;99.90;;;;;;4970334;28;20412;-51
2023/01/11 05:27:59;;;;;;;7.40;1.93;;;7.70;99.90;;;;;;4970089;28;20460;-51
2023/01/11 05:30:26;;;;;;;8.10;2.40;;;7.80;99.90;;;;;;4969886;28;20411;-50
2023/01/11 05:32:52;;;;;;;4.20;2.37;;;7.80;99.90;;;;;;4970024;28;20940;-51
2023/01/11 05:35:19;;;;;;;5.50;1.80;;;7.90;99.90;;;;;;4969917;28;20405;-51
2023/01/11 05:37:46;;;;;;;4.67;2.33;;;7.80;99.90;;;;;;4970544;28;20934;-51
2023/01/11 05:40:13;;;;;;;5.37;1.70;;;7.80;99.90;;;;;;4973473;28;20419;-51
2023/01/11 05:42:41;;;;;;;5.27;2.23;;;7.90;99.90;;;;;;4973927;28;20820;-51
2023/01/11 05:47:53;;;;;;;5.27;2.20;;;7.60;99.90;;;;;;4973300;28;20461;-51
2023/01/11 05:50:20;;;;;;;7.40;2.87;;;7.50;99.90;;;;;;4973047;28;20527;-51
2023/01/11 05:52:46;;;;;;;5.83;2.77;;;7.60;99.90;;;;;;4973327;28;20764;-52
2023/01/11 05:55:13;;;;;;;8.83;2.67;;;7.60;99.90;;;;;;4973374;28;20444;-51
2023/01/11 05:57:42;;;;;;;6.57;4.20;;;7.70;99.90;;;;;;4973489;28;20416;-51
2023/01/11 06:00:10;;;;;;;8.23;4.00;;;7.90;99.90;;;;;;4973116;28;20781;-53
2023/01/11 06:02:38;;;;;;;5.70;3.43;;;7.60;99.90;;;;;;4973823;28;20463;-51
2023/01/11 06:05:05;;;;;;;6.23;3.63;;;7.00;99.90;;;;;;4973093;28;20419;-52
2023/01/11 06:07:32;;;;;;;10.93;3.47;;;7.60;99.90;;;;;;4973249;28;20415;-51
2023/01/11 06:09:58;;;;;;;6.20;3.60;;;7.10;99.90;;;;;;4973169;28;20445;-52
2023/01/11 06:12:25;;;;;;;14.33;3.00;;;7.60;99.90;;;;;;4973095;28;20436;-52
2023/01/11 06:14:53;;;;;;;8.63;3.80;;;7.90;99.90;;;;;;4973077;28;20928;-53
2023/01/11 06:17:19;;;;;;;9.40;4.87;;;7.70;99.90;;;;;;4972974;28;20420;-51
2023/01/11 06:19:46;;;;;;;8.33;3.60;;;7.40;99.90;;;;;;4972321;28;20415;-51
2023/01/11 06:22:13;;;;;;;6.87;3.23;;;7.60;99.90;;;;;;4972444;28;20446;-50
2023/01/11 06:24:39;;;;;;;10.17;4.30;;;7.90;99.90;;;;;;4972863;28;20426;-51
2023/01/11 06:27:06;;;;;;;8.30;2.53;;;7.60;99.90;;;;;;4972614;28;20435;-52
2023/01/11 06:29:32;;;;;;;6.00;3.30;;;8.00;99.90;;;;;;4972631;28;20478;-51
2023/01/11 06:32:00;;;;;;;6.17;3.27;;;7.70;99.90;;;;;;4972186;28;20458;-53
2023/01/11 06:34:27;;;;;;;10.20;3.30;;;7.50;99.90;;;;;;4972167;28;20441;-52
2023/01/11 06:36:53;;;;;;;10.23;3.23;;;7.70;99.90;;;;;;4972097;28;20439;-52
2023/01/11 06:39:20;;;;;;;5.17;2.40;;;7.70;99.90;;;;;;4971912;28;20408;-51
2023/01/11 06:41:47;;;;;;;11.20;2.17;;;7.70;99.90;;;;;;4972034;28;20759;-52
2023/01/11 06:44:13;;;;;;;4.10;2.10;;;7.90;99.90;;;;;;4972072;28;20415;-52
2023/01/11 06:46:40;;;;;;;7.47;2.60;;;7.80;99.90;;;;;;4972036;28;20420;-51
2023/01/11 06:49:08;;;;;;;4.90;2.43;;;7.20;99.90;;;;;;4971479;28;20463;-51
2023/01/11 06:51:34;;;;;;;6.90;2.47;;;7.90;99.90;;;;;;4972005;28;20937;-52
2023/01/11 06:54:01;;;;;;;9.13;2.53;;;7.70;99.90;;;;;;4971908;28;20470;-52
2023/01/11 06:56:27;;;;;;;9.23;2.50;;;7.80;99.90;;;;;;4972078;28;20422;-52
2023/01/11 06:58:54;;;;;;;6.80;2.90;;;7.70;99.90;;;;;;4972118;28;20418;-53
2023/01/11 07:01:21;;;;;;;7.30;2.23;;;7.80;99.90;;;;;;4971854;28;20411;-51
2023/01/11 07:03:47;;;;;;;8.13;2.90;;;7.30;99.90;;;;;;4971254;28;20448;-52
2023/01/11 07:06:15;;;;;;;5.67;2.50;;;7.60;99.90;;;;;;4971589;28;20403;-51
2023/01/11 07:08:42;;;;;;;6.70;3.70;;;7.70;99.90;;;;;;4971346;28;20456;-52
2023/01/11 07:11:08;;;;;;;7.20;2.47;;;7.90;99.90;;;;;;4971161;28;20460;-52
2023/01/11 07:13:35;;;;;;;11.63;3.00;;;7.60;99.90;;;;;;4971679;28;20827;-52
2023/01/11 07:16:02;;;;;;;8.93;3.20;;;7.90;99.90;;;;;;4971450;28;20436;-52
2023/01/11 07:18:30;;;;;;;4.87;2.20;;;7.80;99.90;;;;;;4971544;28;20776;-52
2023/01/11 07:20:57;;;;;;;6.63;3.03;;;7.60;99.90;;;;;;4971804;28;20409;-52
2023/01/11 07:23:25;;;;;;;6.33;2.30;;;7.60;99.90;;;;;;4971386;28;20435;-54
2023/01/11 07:25:51;;;;;;;5.17;2.40;;;7.70;99.90;;;;;;4971585;28;20468;-53
2023/01/11 07:28:18;;;;;;;7.40;2.90;;;7.80;99.90;;;;;;4970873;28;21053;-53
2023/01/11 07:30:44;;;;;;;6.80;3.00;;;7.80;99.90;;;;;;4971514;28;20442;-53
2023/01/11 07:33:11;;;;;;;9.53;2.43;;;7.60;99.90;;;;;;4971466;28;20545;-52
2023/01/11 07:35:37;;;;;;;13.27;3.20;;;7.20;99.90;;;;;;4971432;28;20414;-52
2023/01/11 07:38:06;;;;;;;5.63;2.33;;;7.80;99.90;;;;;;4971020;28;20431;-51
2023/01/11 07:40:35;;;;;;;5.57;2.50;;;8.10;99.90;;;;;;5037989;28;20436;-52
2023/01/11 07:43:10;;;;;;;4.13;2.50;;;7.90;99.90;;;;;;4971666;28;20559;-52
2023/01/11 07:45:39;;;;;;;6.67;2.80;;;8.00;99.90;;;;;;4971344;28;20404;-52
2023/01/11 07:48:08;;;;;;;5.40;2.37;;;8.10;99.90;;;;;;5037817;28;20457;-53
2023/01/11 07:50:36;;;;;;;4.00;2.63;;;8.00;99.90;;;;;;4971657;28;20472;-53
2023/01/11 07:53:03;;;;;;;9.17;3.43;;;7.80;99.90;;;;;;4971149;28;20468;-52
2023/01/11 07:55:30;;;;;;;8.83;2.20;;;8.00;99.90;;;;;;4971249;28;20445;-52
2023/01/11 07:57:58;;;;;;;3.30;2.37;;;7.90;99.90;;;;;;4970918;28;20445;-53
2023/01/11 08:00:25;;;;;;;5.97;2.40;;;8.10;99.90;;;;;;4969953;28;20761;-52
2023/01/11 08:02:52;;;;;;;4.80;2.60;;;8.10;99.90;;;;;;4971124;28;20987;-51
2023/01/11 08:05:19;;;;;;;5.50;2.20;;;8.20;99.90;;;;;;4971193;28;20714;-52
2023/01/11 08:07:46;;;;;;;4.57;2.47;;;7.90;99.90;;;;;;4971229;28;20459;-52
2023/01/11 08:10:13;;;;;;;8.40;2.30;;;8.00;99.90;;;;;;4970487;28;20464;-52
2023/01/11 08:15:30;;;;;;;8.50;3.03;;;8.10;99.90;;;;;;4971126;28;20519;-51
2023/01/11 08:17:56;;;;;;;6.33;2.97;;;8.10;99.90;;;;;;4970626;28;20430;-53
2023/01/11 08:20:23;;;;;;;8.53;2.30;;;8.10;99.90;;;;;;4970828;28;20834;-53
2023/01/11 08:22:50;;;;;;;4.63;2.47;;;8.30;99.90;;;;;;4970426;28;20425;-53
2023/01/11 08:25:17;;;;;;;5.40;2.60;;;8.20;99.90;;;;;;4970955;28;20816;-52
2023/01/11 08:27:43;;;;;;;6.97;4.40;;;8.00;99.90;;;;;;4970615;28;20719;-52
2023/01/11 08:30:11;;;;;;;7.87;3.47;;;8.40;99.90;;;;;;4970022;28;20499;-53
2023/01/11 08:32:39;;;;;;;6.00;3.40;;;8.40;99.90;;;;;;4970885;28;20565;-51
2023/01/11 08:35:06;;;;;;;4.63;2.50;;;8.50;99.90;;;;;;4970261;28;20424;-51
2023/01/11 08:37:33;;;;;;;5.70;2.73;;;8.40;99.90;;;;;;4970480;28;20487;-52
2023/01/11 08:40:00;;;;;;;8.03;3.07;;;8.40;99.90;;;;;;4970234;28;20445;-52
2023/01/11 08:42:26;;;;;;;8.80;2.70;;;8.30;99.90;;;;;;4970294;28;20435;-53
2023/01/11 08:44:54;;;;;;;7.43;2.73;;;8.70;99.90;;;;;;4969734;28;20421;-52
2023/01/11 08:47:21;;;;;;;4.23;2.30;;;8.50;99.90;;;;;;4970343;28;20441;-51
2023/01/11 08:49:49;;;;;;;7.90;2.90;;;8.80;99.90;;;;;;4969939;28;20481;-52
2023/01/11 08:52:15;;;;;;;4.07;2.30;;;8.60;99.90;;;;;;4970073;28;20967;-51
2023/01/11 08:54:42;;;;;;;6.40;2.83;;;8.70;99.90;;;;;;4970166;28;20752;-53
2023/01/11 08:57:09;;;;;;;4.90;2.37;;;8.00;99.90;;;;;;4970247;28;20950;-51
2023/01/11 08:59:36;;;;;;;5.13;2.20;;;8.50;99.90;;;;;;4970217;28;20408;-52
2023/01/11 09:02:04;;;;;;;5.60;2.33;;;8.50;99.90;;;;;;4970321;28;20472;-51
2023/01/11 09:04:32;;;;;;;4.00;2.10;;;8.40;99.90;;;;;;4970459;28;20440;-52
2023/01/11 09:07:00;;;;;;;3.57;2.40;;;8.90;99.90;;;;;;4970337;28;20397;-52
2023/01/11 09:09:27;;;;;;;4.30;2.30;;;8.90;99.90;;;;;;4970137;28;20492;-52
2023/01/11 09:11:55;;;;;;;6.80;2.10;;;8.60;99.90;;;;;;4970039;28;20484;-52
2023/01/11 09:14:22;;;;;;;4.00;1.80;;;8.50;99.90;;;;;;4970355;28;20453;-52
2023/01/11 09:16:49;;;;;;;5.83;2.80;;;8.50;99.90;;;;;;4970462;28;20911;-53
2023/01/11 09:19:16;;;;;;;5.67;2.67;;;8.90;99.90;;;;;;4970059;28;20413;-52
2023/01/11 09:21:42;;;;;;;5.80;2.87;;;8.50;99.90;;;;;;4969985;28;20430;-53
2023/01/11 09:24:10;;;;;;;9.40;3.23;;;9.20;99.90;;;;;;4970242;28;20592;-52
2023/01/11 09:26:37;;;;;;;5.50;2.70;;;8.60;99.90;;;;;;4970115;28;20441;-51
2023/01/11 09:29:04;;;;;;;3.77;2.83;;;8.20;99.90;;;;;;4969576;28;20521;-52
2023/01/11 09:31:31;;;;;;;6.30;3.20;;;8.80;99.90;;;;;;5036222;28;20452;-51
2023/01/11 09:33:57;;;;;;;13.50;7.70;;;8.80;99.90;;;;;;4969931;28;20462;-51
2023/01/11 09:36:26;;;;;;;5.60;2.70;;;8.60;99.90;;;;;;4970299;28;20445;-52
2023/01/11 09:38:56;;;;;;;7.20;3.10;;;8.70;99.90;;;;;;4969836;28;20442;-52
2023/01/11 09:41:38;;;;;;;8.73;3.50;;;8.40;99.90;;;;;;5036303;28;20461;-52
2023/01/11 09:44:13;;;;;;;6.63;3.20;;;8.60;99.90;;;;;;4970156;28;20404;-53
2023/01/11 09:46:42;;;;;;;7.47;3.10;;;8.80;99.90;;;;;;4970082;28;20443;-51
2023/01/11 09:49:16;;;;;;;6.17;4.00;;;8.80;99.90;;;;;;4969299;28;20485;-51
2023/01/11 09:51:43;;;;;;;10.20;3.80;;;9.00;99.90;;;;;;4969286;28;20445;-52
2023/01/11 09:54:18;;;;;;;6.57;3.70;;;9.00;99.90;;;;;;5036066;28;20507;-51
2023/01/11 09:56:56;;;;;;;5.40;3.60;;;8.40;99.90;;;;;;4969876;28;20492;-52
2023/01/11 09:59:33;;;;;;;5.87;3.53;;;8.40;99.90;;;;;;4969595;28;20408;-51
2023/01/11 10:02:10;;;;;;;6.57;3.30;;;8.60;99.90;;;;;;4969587;28;20447;-51
2023/01/11 10:05:02;;;;;;;5.63;3.03;;;8.90;99.90;;;;;;4969869;28;20434;-52
2023/01/11 10:07:42;;;;;;;5.47;3.20;;;8.80;99.90;;;;;;4969652;28;21002;-52
2023/01/11 10:10:22;;;;;;;6.50;4.50;;;8.20;99.90;;;;;;4969615;28;20482;-53
2023/01/11 10:12:59;;;;;;;6.77;4.03;;;8.60;99.90;;;;;;5035903;28;20521;-52
2023/01/11 10:15:33;;;;;;;5.70;3.40;;;8.60;99.90;;;;;;4969820;28;20416;-52
2023/01/11 10:18:17;;;;;;;5.87;3.23;;;8.90;99.90;;;;;;5035838;28;20457;-51
2023/01/11 10:20:49;;;;;;;7.10;4.77;;;8.70;99.90;;;;;;4969281;28;20428;-52
2023/01/11 10:23:23;;;;;;;7.17;4.10;;;9.10;99.90;;;;;;4968878;28;20813;-52
2023/01/11 10:25:55;;;;;;;6.67;3.53;;;8.30;99.90;;;;;;4972611;28;20438;-52
2023/01/11 10:28:30;;;;;;;5.03;3.13;;;8.80;99.90;;;;;;4972061;28;20426;-52
2023/01/11 10:31:10;;;;;;;8.17;6.00;;;9.00;99.90;;;;;;4972353;28;20452;-52
2023/01/11 10:33:56;;;;;;;7.97;3.30;;;9.30;99.90;;;;;;4972348;28;20772;-52
2023/01/11 10:36:49;;;;;;;4.70;3.70;;;8.90;99.90;;;;;;4972704;28;20512;-52
2023/01/11 10:39:38;;;;;;;5.63;4.20;;;8.80;99.90;;;;;;4972120;28;20446;-52
2023/01/11 10:42:10;;;;;;;9.03;4.67;;;8.90;99.90;;;;;;4972340;28;20532;-52
2023/01/11 10:44:46;;;;;;;3.90;3.50;;;9.30;99.90;;;;;;4972317;28;20911;-51
2023/01/11 10:47:17;;;;;;;5.33;3.40;;;9.50;99.90;;;;;;4972431;28;20446;-52
2023/01/11 10:49:50;;;;;;;4.80;3.50;;;9.10;99.90;;;;;;4971966;28;20535;-51
2023/01/11 10:52:27;;;;;;;9.07;3.47;;;9.20;99.90;;;;;;4972475;28;20457;-52
2023/01/11 10:54:56;;;;;;;7.43;5.97;;;8.90;99.90;;;;;;4973069;28;20444;-52
2023/01/11 10:57:35;;;;;;;6.20;4.23;;;9.10;99.90;;;;;;5038985;28;20527;-52
2023/01/11 11:00:20;;;;;;;10.00;6.20;;;9.20;99.90;;;;;;4971822;28;20439;-52
2023/01/11 11:03:08;;;;;;;6.60;4.30;;;9.70;99.90;;;;;;5038831;28;20478;-52
2023/01/11 11:05:46;;;;;;;5.50;3.23;;;9.50;99.90;;;;;;5039372;28;20913;-52
2023/01/11 11:08:17;;;;;;;6.17;3.23;;;9.40;99.90;;;;;;4971930;28;20430;-52
2023/01/11 11:10:51;;;;;;;5.90;4.10;;;9.00;99.90;;;;;;4972073;28;20460;-52
2023/01/11 11:13:25;;;;;;;4.10;2.77;;;9.20;99.90;;;;;;4972312;28;20548;-52
2023/01/11 11:15:59;;;;;;;5.83;4.60;;;9.30;99.90;;;;;;4971671;28;20532;-51
2023/01/11 11:18:25;;;;;;;7.27;4.07;;;9.10;99.90;;;;;;4971920;28;20498;-52
2023/01/11 11:20:52;;;;;;;8.23;6.00;;;8.60;99.90;;;;;;4971733;28;20505;-52
2023/01/11 11:23:23;;;;;;;6.10;3.53;;;9.10;99.90;;;;;;4971694;28;20436;-52
2023/01/11 11:25:55;;;;;;;17.80;8.37;;;9.20;99.90;;;;;;4971534;28;20797;-52
2023/01/11 11:28:27;;;;;;;5.97;4.50;;;9.10;99.90;;;;;;4971088;28;20418;-52
2023/01/11 11:30:57;;;;;;;3.97;3.20;;;9.10;99.90;;;;;;4970968;28;20515;-52
2023/01/11 11:33:26;;;;;;;6.00;4.90;;;9.50;99.90;;;;;;4971573;28;20544;-51
2023/01/11 11:36:00;;;;;;;7.83;4.50;;;9.00;99.90;;;;;;4971820;28;20425;-52
2023/01/11 11:38:28;;;;;;;4.50;3.93;;;9.60;99.90;;;;;;4971655;28;20417;-52
2023/01/11 11:41:05;;;;;;;5.40;4.47;;;9.00;99.90;;;;;;5037833;28;20454;-52
2023/01/11 11:43:33;;;;;;;10.23;4.87;;;8.70;99.90;;;;;;4971255;28;20457;-52
2023/01/11 11:46:03;;;;;;;5.93;4.80;;;9.30;99.90;;;;;;4971383;28;21141;-52
2023/01/11 11:48:32;;;;;;;6.33;5.40;;;9.10;99.90;;;;;;4971573;28;20426;-52
2023/01/11 11:51:01;;;;;;;5.23;4.43;;;9.10;99.90;;;;;;4971108;28;20482;-52
2023/01/11 11:53:36;;;;;;;4.93;3.80;;;9.10;99.90;;;;;;4970362;28;20450;-52
2023/01/11 11:56:17;;;;;;;5.60;4.37;;;9.20;99.90;;;;;;4971213;28;20430;-51
2023/01/11 11:58:44;;;;;;;4.87;4.37;;;9.40;99.90;;;;;;4971059;28;20413;-51
2023/01/11 12:01:29;;;;;;;7.47;4.47;;;9.20;99.90;;;;;;4971602;28;20409;-51
2023/01/11 12:03:59;;;;;;;5.30;4.10;;;9.20;99.90;;;;;;5037789;28;20570;-51
2023/01/11 12:06:28;;;;;;;7.10;5.00;;;9.40;99.90;;;;;;4971287;28;20804;-51
2023/01/11 12:08:56;;;;;;;5.50;3.80;;;9.50;99.90;;;;;;4970528;28;20529;-52
2023/01/11 12:11:29;;;;;;;4.87;4.47;;;9.30;99.90;;;;;;5037455;28;20593;-52
2023/01/11 12:14:02;;;;;;;5.60;3.57;;;9.40;99.90;;;;;;4970913;28;20462;-52
2023/01/11 12:16:34;;;;;;;6.03;4.00;;;9.50;99.90;;;;;;4971134;28;20897;-52
2023/01/11 12:19:01;;;;;;;5.07;2.77;;;8.90;99.90;;;;;;4970633;28;20430;-51
2023/01/11 12:21:29;;;;;;;6.07;3.90;;;9.30;99.90;;;;;;4971002;28;20421;-51
2023/01/11 12:24:15;;;;;;;3.67;3.37;;;9.50;99.90;;;;;;4970679;28;20972;-52
2023/01/11 12:26:52;;;;;;;5.83;4.30;;;9.30;99.90;;;;;;4970502;28;20421;-51
2023/01/11 12:29:39;;;;;;;7.27;3.80;;;9.40;99.90;;;;;;4970316;28;20417;-52
2023/01/11 12:32:26;;;;;;;4.47;3.70;;;9.40;99.90;;;;;;4971006;28;20466;-51
2023/01/11 12:35:22;;;;;;;4.33;3.80;;;9.40;99.90;;;;;;4970753;28;20416;-52
2023/01/11 12:38:05;;;;;;;6.23;4.63;;;9.30;99.90;;;;;;4970559;28;20794;-52
2023/01/11 12:40:36;;;;;;;6.53;2.80;;;9.20;99.90;;;;;;4970597;28;20415;-52
2023/01/11 12:43:37;;;;;;;4.37;3.97;;;9.40;99.90;;;;;;4970439;28;20495;-52
2023/01/11 12:46:13;;;;;;;4.60;3.50;;;9.50;99.90;;;;;;4970391;28;20541;-50
2023/01/11 12:48:55;;;;;;;3.57;3.10;;;9.60;99.90;;;;;;4970044;28;20844;-52
2023/01/11 12:51:37;;;;;;;4.63;3.57;;;9.50;99.90;;;;;;4970453;28;20494;-54
2023/01/11 12:54:18;;;;;;;5.17;3.77;;;9.60;99.90;;;;;;5037860;28;20809;-51
2023/01/11 12:57:02;;;;;;;6.73;3.33;;;9.50;99.90;;;;;;5037261;28;20409;-51
2023/01/11 12:59:47;;;;;;;5.83;3.37;;;9.30;99.90;;;;;;4969847;28;20438;-51
2023/01/11 13:02:30;;;;;;;7.13;3.40;;;8.90;99.90;;;;;;4969701;28;20455;-51
2023/01/11 13:05:07;;;;;;;3.90;3.50;;;9.30;99.90;;;;;;4970314;28;20397;-51
2023/01/11 13:07:46;;;;;;;5.43;3.30;;;9.60;99.90;;;;;;4970225;28;20929;-51
2023/01/11 13:10:30;;;;;;;5.00;3.47;;;9.40;99.90;;;;;;4970150;28;20819;-51
2023/01/11 13:13:02;;;;;;;8.87;3.60;;;9.50;99.90;;;;;;4969979;28;20814;-51
2023/01/11 13:15:40;;;;;;;7.50;4.10;;;9.90;99.90;;;;;;4970492;28;20815;-51
2023/01/11 13:18:18;;;;;;;4.80;3.47;;;8.90;99.90;;;;;;4970070;28;20461;-53
2023/01/11 13:20:51;;;;;;;5.43;3.40;;;9.40;99.90;;;;;;4970105;28;20881;-52
2023/01/11 13:23:28;;;;;;;4.87;3.60;;;9.40;99.90;;;;;;5036292;28;20497;-51
2023/01/11 13:25:56;;;;;;;5.20;3.90;;;9.50;99.90;;;;;;4969831;28;20710;-51
2023/01/11 13:28:29;;;;;;;9.07;4.00;;;9.00;99.90;;;;;;4969724;28;20766;-52
2023/01/11 13:30:56;;;;;;;8.73;4.87;;;9.60;99.90;;;;;;4969742;28;20470;-52
2023/01/11 13:33:26;;;;;;;6.63;3.60;;;9.60;99.90;;;;;;4969758;28;20425;-51